Data for 02/24/2016

Time Sea-Level Adjusted Pressure Absolute Pressure Temperature Relative Humidity Dew Point   
(mb) (inHg) (mb) (inHg) (C) (F) (%) (C) (F)
00:05 1023 30.21 852 25.16 -0.8 30.6 31 -15.9 3.4
00:10 1023 30.21 852 25.16 -0.9 30.3 32 -15.7 3.7
00:15 1023 30.21 852 25.16 -1.1 30.1 33 -15.6 3.9
00:20 1023 30.21 852 25.16 -1 30.2 32 -15.9 3.3
00:25 1023 30.21 852 25.16 -1.1 30.1 31 -16.1 3
00:30 1023 30.21 852 25.16 -1.1 30.1 31 -16 3.1
00:35 1023 30.21 852 25.16 -1.1 29.9 31 -16.1 3.1
00:40 1023 30.21 852 25.16 -1.3 29.7 32 -15.8 3.5
00:45 1023 30.21 852 25.16 -1.4 29.5 32 -16 3.1
00:50 1023 30.21 852 25.16 -1.4 29.5 32 -16 3.2
00:55 1023 30.21 852 25.16 -1.5 29.2 32 -16.2 2.8
01:00 1023 30.21 852 25.16 -1.6 29.1 33 -16.1 3
01:05 1023 30.21 852 25.16 -1.7 29 32 -16.2 2.8
01:10 1023 30.21 852 25.16 -1.7 28.9 33 -16.2 2.9
01:15 1023 30.21 852 25.16 -1.8 28.8 33 -16.1 3
01:20 1023 30.21 852 25.16 -2 28.5 33 -16.3 2.7
01:25 1023 30.21 852 25.16 -2 28.5 33 -16.3 2.6
01:30 1023 30.21 852 25.16 -1.9 28.5 33 -16.3 2.7
01:35 1023 30.21 853 25.19 -2 28.4 33 -16.2 2.8
01:40 1023 30.21 853 25.19 -2.3 27.9 37 -15.3 4.5
01:45 1023 30.21 853 25.19 -2.8 26.9 36 -15.8 3.5
01:50 1023 30.21 852 25.16 -2.9 26.8 38 -15.3 4.5
01:55 1023 30.21 852 25.16 -3.4 25.9 44 -14 6.8
02:00 1023 30.21 853 25.19 -3.9 25.1 45 -14.1 6.5
02:05 1023 30.21 852 25.16 -4 24.8 44 -14.6 5.7
02:10 1023 30.21 852 25.16 -3.9 25 42 -15 5.1
02:15 1023 30.21 853 25.19 -3.6 25.6 42 -14.6 5.6
02:20 1023 30.21 853 25.19 -3.5 25.7 40 -15.2 4.7
02:25 1023 30.21 853 25.19 -3.7 25.3 44 -14.2 6.4
02:30 1023 30.21 853 25.19 -4 24.8 45 -14.4 6.1
02:35 1023 30.21 853 25.19 -4.3 24.3 45 -14.4 6.1
02:40 1023 30.21 853 25.19 -4.5 23.9 47 -14.1 6.6
02:45 1023 30.21 853 25.19 -5 23.1 49 -14.1 6.7
02:50 1023 30.21 853 25.19 -5.6 22 49 -14.7 5.5
02:55 1023 30.21 853 25.19 -5.7 21.8 49 -14.6 5.7
03:00 1023 30.21 853 25.19 -5.6 21.9 49 -14.8 5.4
03:05 1023 30.21 853 25.19 -5.5 22.2 48 -14.8 5.3
03:10 1023 30.21 853 25.19 -5.3 22.5 48 -14.6 5.6
03:15 1023 30.21 853 25.19 -5.2 22.6 48 -14.7 5.6
03:20 1023 30.21 853 25.19 -5.2 22.7 47 -14.7 5.5
03:25 1023 30.21 853 25.19 -5.5 22.1 46 -15.3 4.5
03:30 1023 30.21 853 25.19 -5.5 22.1 47 -15.3 4.5
03:35 1023 30.21 853 25.19 -5.2 22.6 46 -15.2 4.6
03:40 1023 30.21 853 25.19 -5.1 22.9 47 -14.8 5.4
03:45 1023 30.21 852 25.16 -5.2 22.7 46 -15.2 4.7
03:50 1023 30.21 852 25.16 -5.4 22.3 49 -14.6 5.7
03:55 1023 30.21 852 25.16 -5.2 22.6 47 -14.9 5.1
04:00 1023 30.21 853 25.19 -5.2 22.7 47 -14.9 5.1
04:05 1023 30.21 853 25.19 -5.4 22.2 47 -15.2 4.7
04:10 1023 30.21 853 25.19 -5.7 21.7 50 -14.6 5.7
04:15 1023 30.21 853 25.19 -6.2 20.8 50 -15 5
04:20 1023 30.21 852 25.16 -6.4 20.6 50 -15.2 4.6
04:25 1023 30.21 852 25.16 -6.5 20.3 51 -15 5.1
04:30 1023 30.21 853 25.19 -6.8 19.8 53 -14.8 5.4
04:35 1023 30.21 853 25.19 -6.8 19.7 53 -15 5
04:40 1023 30.21 853 25.19 -6.6 20.1 49 -15.6 3.9
04:45 1023 30.21 853 25.19 -6.4 20.5 47 -15.9 3.4
04:50 1023 30.21 853 25.19 -5.8 21.5 44 -16.2 2.9
04:55 1024 30.24 853 25.19 -5.6 22 44 -16.1 3
05:00 1024 30.24 853 25.19 -5.2 22.6 41 -16.6 2.2
05:05 1024 30.24 853 25.19 -5 23 42 -16.2 2.8
05:10 1024 30.24 853 25.19 -5.2 22.6 43 -16.1 3
05:15 1024 30.24 853 25.19 -5.4 22.3 43 -16 3.1
05:20 1024 30.24 853 25.19 -5.5 22 44 -16 3.1
05:25 1024 30.24 853 25.19 -5.6 21.9 43 -16.3 2.7
05:30 1024 30.24 853 25.19 -5.3 22.4 42 -16.4 2.5
05:35 1024 30.24 853 25.19 -5.3 22.4 42 -16.3 2.6
05:40 1024 30.24 853 25.19 -5.4 22.3 43 -16.1 3
05:45 1024 30.24 853 25.19 -5.5 22.1 43 -16.3 2.7
05:50 1024 30.24 853 25.19 -5.5 22 43 -16.2 2.8
05:55 1024 30.24 853 25.19 -5.6 21.9 44 -16.1 3
06:00 1024 30.24 853 25.19 -5.6 21.9 43 -16.4 2.5
06:05 1024 30.24 853 25.19 -5.6 21.9 44 -16.1 3
06:10 1024 30.24 853 25.19 -5.9 21.3 45 -16 3.1
06:15 1024 30.24 853 25.19 -6.1 20.9 46 -15.9 3.3
06:20 1024 30.24 853 25.19 -6.2 20.8 46 -16 3.3
06:25 1024 30.24 853 25.19 -6.3 20.7 47 -15.9 3.4
06:30 1024 30.24 853 25.19 -6.4 20.5 47 -16 3.3
06:35 1024 30.24 853 25.19 -6.5 20.2 48 -15.9 3.4
06:40 1024 30.24 853 25.19 -6.5 20.2 47 -16.2 2.9
06:45 1024 30.24 853 25.19 -6.4 20.5 46 -16.2 2.8
06:50 1024 30.24 853 25.19 -6.2 20.9 45 -16.4 2.5
06:55 1024 30.24 853 25.19 -6 21.2 44 -16.3 2.6
07:00 1024 30.24 853 25.19 -6 21.2 45 -16.2 2.9
07:05 1024 30.24 853 25.19 -6.2 20.9 46 -16 3.1
07:10 1024 30.24 853 25.19 -6.3 20.7 48 -15.6 3.9
07:15 1024 30.24 853 25.19 -6.8 19.8 50 -15.6 3.9
07:20 1024 30.24 853 25.19 -6.9 19.5 50 -15.7 3.8
07:25 1024 30.24 853 25.19 -7 19.4 50 -15.8 3.5
07:30 1024 30.24 853 25.19 -6.8 19.7 49 -15.8 3.6
07:35 1024 30.24 853 25.19 -6.9 19.6 48 -16.1 3
07:40 1024 30.24 853 25.19 -6.9 19.6 49 -16 3.2
07:45 1024 30.24 853 25.19 -6.9 19.6 49 -15.9 3.4
07:50 1024 30.24 853 25.19 -7 19.3 49 -16 3.3
07:55 1024 30.24 853 25.19 -7 19.3 49 -16 3.2
08:00 1024 30.24 853 25.19 -7 19.3 49 -16 3.2
08:05 1024 30.24 853 25.19 -7.2 19 50 -16 3.3
08:10 1024 30.24 853 25.19 -7.1 19.2 49 -16.1 3.1
08:15 1024 30.24 854 25.22 -7 19.3 49 -16 3.1
08:20 1024 30.24 854 25.22 -7 19.3 49 -16.1 3
08:25 1024 30.24 854 25.22 -6.9 19.6 47 -16.5 2.4
08:30 1024 30.24 854 25.22 -6.6 20.2 46 -16.3 2.6
08:35 1024 30.24 854 25.22 -6.5 20.4 46 -16.2 2.9
08:40 1024 30.24 854 25.22 -6.4 20.5 46 -16.2 2.8
08:45 1025 30.27 854 25.22 -6.2 20.8 46 -16.1 3.1
08:50 1025 30.27 854 25.22 -6.1 21 45 -16.3 2.7
08:55 1025 30.27 854 25.22 -6 21.3 46 -15.9 3.3
09:00 1025 30.27 854 25.22 -5.9 21.3 46 -15.8 3.6
09:05 1025 30.27 854 25.22 -5.8 21.6 46 -15.7 3.7
09:10 1025 30.27 854 25.22 -5.7 21.8 45 -15.9 3.3
09:15 1025 30.27 854 25.22 -5.3 22.5 44 -15.8 3.6
09:20 1025 30.27 854 25.22 -5.1 22.9 43 -15.8 3.6
09:25 1025 30.27 854 25.22 -4.7 23.6 42 -15.7 3.8
09:30 1025 30.27 854 25.22 -4.6 23.6 41 -16 3.1
09:35 1025 30.27 854 25.22 -4.3 24.2 40 -15.9 3.3
09:40 1025 30.27 854 25.22 -3.6 25.5 37 -16.4 2.5
09:45 1025 30.27 854 25.22 -3.2 26.3 38 -15.7 3.7
09:50 1025 30.27 854 25.22 -2.8 27 35 -16.1 2.9
09:55 1025 30.27 854 25.22 -2.3 27.9 36 -15.6 4
10:00 1025 30.27 854 25.22 -2 28.3 34 -15.9 3.4
10:05 1025 30.27 854 25.22 -1.7 28.9 33 -15.8 3.5
10:10 1025 30.27 854 25.22 -1.5 29.3 33 -15.9 3.4
10:15 1025 30.27 854 25.22 -1.3 29.7 33 -15.7 3.7
10:20 1025 30.27 854 25.22 -1.1 30.1 33 -15.3 4.5
10:25 1025 30.27 855 25.25 -0.9 30.3 33 -15.4 4.3
10:30 1025 30.27 855 25.25 -0.6 30.9 33 -15.2 4.6
10:35 1025 30.27 854 25.22 -0 32 30 -15.5 4.1
10:40 1025 30.27 854 25.22 -0.1 31.9 30 -15.6 4
10:45 1025 30.27 854 25.22 0.2 32.3 29 -15.8 3.5
10:50 1025 30.27 854 25.22 0 32.1 31 -15.3 4.5
10:55 1025 30.27 854 25.22 0.3 32.5 30 -15.4 4.3
11:00 1025 30.27 854 25.22 0.6 33 29 -15.5 4.2
11:05 1025 30.27 854 25.22 0.7 33.2 28 -15.7 3.7
11:10 1025 30.27 854 25.22 1 33.9 27 -15.9 3.4
11:15 1025 30.27 854 25.22 1.3 34.4 26 -16.1 2.9
11:20 1025 30.27 855 25.25 1.1 34 27 -16 3.3
11:25 1025 30.27 854 25.22 1.3 34.3 27 -15.9 3.4
11:30 1025 30.27 854 25.22 1.7 35.1 26 -15.8 3.5
11:35 1025 30.27 854 25.22 2.3 36.1 26 -15.4 4.2
11:40 1025 30.27 854 25.22 2.3 36.2 26 -15.6 4
11:45 1025 30.27 854 25.22 2.2 35.9 26 -15.5 4.1
11:50 1025 30.27 854 25.22 2.5 36.5 25 -15.7 3.7
11:55 1025 30.27 854 25.22 2.9 37.3 25 -15.5 4.1
12:00 1025 30.27 854 25.22 3.3 38 23 -15.7 3.7
12:05 1025 30.27 854 25.22 3 37.4 25 -15.3 4.4
12:10 1025 30.27 854 25.22 2.3 36.1 25 -16 3.3
12:15 1025 30.27 854 25.22 2.7 36.9 23 -16.3 2.7
12:20 1025 30.27 854 25.22 3.5 38.3 22 -16.6 2.2
12:25 1025 30.27 854 25.22 2.9 37.3 23 -16.1 2.9
12:30 1025 30.27 854 25.22 3.6 38.5 21 -16.7 1.9
12:35 1025 30.27 854 25.22 4.2 39.6 19 -17.6 0.3
12:40 1025 30.27 854 25.22 4 39.2 21 -16.6 2.1
12:45 1025 30.27 854 25.22 3.2 37.8 22 -16.6 2.2
12:50 1025 30.27 854 25.22 3.5 38.3 21 -16.7 1.9
12:55 1025 30.27 854 25.22 2.9 37.1 23 -16.6 2.1
13:00 1025 30.27 854 25.22 3 37.4 22 -16.9 1.6
13:05 1025 30.27 854 25.22 4.4 39.8 20 -16.9 1.6
13:10 1025 30.27 854 25.22 5.1 41.2 19 -16.7 2
13:15 1025 30.27 854 25.22 5.3 41.5 19 -16.4 2.4
13:20 1025 30.27 854 25.22 6 42.8 19 -15.8 3.6
13:25 1025 30.27 854 25.22 5 41 21 -15.5 4
13:30 1025 30.27 854 25.22 4.9 40.8 21 -16 3.2
13:35 1024 30.24 854 25.22 5.3 41.6 21 -15.6 3.9
13:40 1024 30.24 854 25.22 5.6 42.1 19 -16.2 2.9
13:45 1024 30.24 854 25.22 5.5 41.9 19 -16.1 3
13:50 1024 30.24 854 25.22 5.8 42.5 19 -16 3.1
13:55 1024 30.24 854 25.22 5.3 41.5 21 -15.5 4.2
14:00 1024 30.24 854 25.22 4.8 40.7 21 -16 3.2
14:05 1024 30.24 853 25.19 4.6 40.2 21 -16.1 3
14:10 1024 30.24 853 25.19 4.3 39.7 20 -16.7 1.9
14:15 1024 30.24 853 25.19 4.7 40.4 19 -17.3 0.9
14:20 1024 30.24 853 25.19 4.5 40.1 20 -16.7 2
14:25 1024 30.24 853 25.19 4.7 40.5 19 -16.8 1.7
14:30 1024 30.24 853 25.19 5 40.9 20 -16.4 2.5
14:35 1024 30.24 853 25.19 4.4 40 19 -17.2 1.1
14:40 1024 30.24 853 25.19 5.1 41.1 20 -16 3.2
14:45 1024 30.24 853 25.19 4.4 40 20 -17 1.4
14:50 1024 30.24 853 25.19 4.4 39.9 19 -17.4 0.7
14:55 1024 30.24 853 25.19 4.4 39.8 20 -16.9 1.6
15:00 1024 30.24 853 25.19 4.7 40.4 19 -17 1.4
15:05 1024 30.24 853 25.19 4.8 40.6 18 -17.6 0.3
15:10 1024 30.24 853 25.19 5.4 41.6 20 -16.2 2.8
15:15 1024 30.24 853 25.19 4.9 40.8 20 -16.6 2.1
15:20 1024 30.24 853 25.19 5.5 41.8 19 -16.7 2
15:25 1024 30.24 853 25.19 5.8 42.5 19 -16 3.1
15:30 1024 30.24 853 25.19 6 42.8 15 -18.5 -1.3
15:35 1024 30.24 853 25.19 6.8 44.2 17 -16.9 1.6
15:40 1024 30.24 853 25.19 5.4 41.6 20 -15.9 3.4
15:45 1024 30.24 853 25.19 5.8 42.5 17 -17.4 0.7
15:50 1024 30.24 853 25.19 6.9 44.4 17 -16.7 2
15:55 1024 30.24 853 25.19 7.1 44.7 17 -16.5 2.2
16:00 1024 30.24 853 25.19 6.6 43.9 17 -16.9 1.5
16:05 1024 30.24 853 25.19 6.3 43.4 18 -16.5 2.4
16:10 1024 30.24 853 25.19 6.6 43.9 18 -16 3.2
16:15 1024 30.24 853 25.19 5.9 42.7 21 -15 4.9
16:20 1024 30.24 853 25.19 5.8 42.5 20 -15.6 3.9
16:25 1024 30.24 853 25.19 5.3 41.5 19 -16.8 1.7
16:30 1024 30.24 853 25.19 6.3 43.3 18 -16.5 2.2
16:35 1024 30.24 853 25.19 6.6 43.9 18 -16.2 2.9
16:40 1024 30.24 853 25.19 6.6 43.8 19 -15.2 4.6
16:45 1024 30.24 853 25.19 6.3 43.3 18 -16.1 3
16:50 1024 30.24 853 25.19 6.8 44.2 18 -15.8 3.5
16:55 1024 30.24 853 25.19 7.1 44.9 18 -15.8 3.6
17:00 1024 30.24 853 25.19 7.7 45.8 17 -15.6 3.9
17:05 1024 30.24 853 25.19 7.5 45.6 18 -15.7 3.7
17:10 1024 30.24 853 25.19 7.4 45.4 18 -15.4 4.3
17:15 1024 30.24 853 25.19 7 44.6 19 -15.5 4.2
17:20 1024 30.24 853 25.19 6.9 44.4 19 -15.4 4.2
17:25 1024 30.24 853 25.19 7.1 44.7 18 -15.5 4
17:30 1023 30.21 853 25.19 6.6 43.8 20 -15.2 4.7
17:35 1023 30.21 853 25.19 5.5 41.9 21 -15.5 4.2
17:40 1023 30.21 853 25.19 5.3 41.5 21 -15.6 3.9
17:45 1023 30.21 853 25.19 5.4 41.7 21 -15.3 4.4
17:50 1023 30.21 853 25.19 4.8 40.6 22 -15.5 4.2
17:55 1023 30.21 853 25.19 5 41 22 -14.8 5.3
18:00 1023 30.21 853 25.19 5.1 41.1 21 -15.5 4.1
18:05 1023 30.21 853 25.19 5 41 21 -15.7 3.7
18:10 1023 30.21 853 25.19 5.5 42 20 -15.6 4
18:15 1023 30.21 853 25.19 5.8 42.4 20 -15.3 4.4
18:20 1023 30.21 853 25.19 5.7 42.2 20 -15.4 4.3
18:25 1023 30.21 853 25.19 5.8 42.4 21 -14.8 5.4
18:30 1023 30.21 853 25.19 5 41 23 -14.6 5.6
18:35 1023 30.21 853 25.19 4.6 40.3 23 -14.8 5.3
18:40 1023 30.21 853 25.19 4.7 40.5 23 -14.8 5.3
18:45 1023 30.21 853 25.19 4.8 40.6 23 -14.9 5.2
18:50 1023 30.21 853 25.19 4.6 40.4 23 -14.8 5.4
18:55 1023 30.21 853 25.19 4.4 39.9 24 -14.6 5.8
19:00 1023 30.21 853 25.19 4.2 39.6 23 -15 4.9
19:05 1023 30.21 853 25.19 4.1 39.3 24 -15 5
19:10 1023 30.21 853 25.19 3.9 38.9 25 -14.6 5.7
19:15 1023 30.21 853 25.19 3.7 38.7 25 -14.5 5.8
19:20 1023 30.21 853 25.19 3.5 38.3 26 -14.5 5.9
19:25 1023 30.21 853 25.19 3.3 38 26 -14.4 6.2
19:30 1023 30.21 853 25.19 3.2 37.8 27 -14.1 6.7
19:35 1023 30.21 853 25.19 3 37.4 27 -14.1 6.6
19:40 1024 30.24 853 25.19 3 37.4 28 -13.9 6.9
19:45 1024 30.24 853 25.19 3.1 37.6 29 -13.1 8.4
19:50 1024 30.24 853 25.19 2.9 37.2 30 -13 8.7
19:55 1024 30.24 853 25.19 2.5 36.5 31 -12.9 8.7
20:00 1024 30.24 853 25.19 2.3 36.1 32 -12.8 9
20:05 1024 30.24 853 25.19 1.7 35.1 32 -13.4 7.9
20:10 1024 30.24 853 25.19 1.7 35.1 33 -12.9 8.8
20:15 1024 30.24 853 25.19 1.8 35.2 33 -12.9 8.8
20:20 1024 30.24 853 25.19 1.5 34.7 35 -12.5 9.5
20:25 1024 30.24 853 25.19 1.3 34.4 34 -13.1 8.5
20:30 1024 30.24 853 25.19 1 33.8 35 -12.7 9.1
20:35 1024 30.24 853 25.19 0.5 33 37 -12.6 9.3
20:40 1024 30.24 853 25.19 0.3 32.5 38 -12.4 9.7
20:45 1024 30.24 853 25.19 0.1 32.1 40 -12.1 10.2
20:50 1024 30.24 853 25.19 -0 32 39 -12.3 9.9
20:55 1024 30.24 853 25.19 0.1 32.1 39 -12.4 9.8
21:00 1024 30.24 853 25.19 -0.1 31.9 40 -12 10.3
21:05 1024 30.24 853 25.19 -0.4 31.3 42 -11.8 10.8
21:10 1024 30.24 853 25.19 -0.6 30.9 41 -12.4 9.7
21:15 1024 30.24 853 25.19 -0.3 31.4 39 -12.6 9.4
21:20 1024 30.24 853 25.19 -0.3 31.5 41 -12 10.4
21:25 1024 30.24 853 25.19 -0.7 30.7 44 -11.5 11.2
21:30 1024 30.24 853 25.19 -1 30.3 43 -12.1 10.2
21:35 1024 30.24 853 25.19 -0.8 30.6 41 -12.5 9.6
21:40 1024 30.24 853 25.19 -0.6 30.8 39 -12.9 8.8
21:45 1024 30.24 853 25.19 -0.4 31.3 38 -13 8.6
21:50 1024 30.24 853 25.19 -0.2 31.6 39 -12.7 9.1
21:55 1024 30.24 853 25.19 -0.3 31.5 39 -12.6 9.4
22:00 1024 30.24 853 25.19 -0.5 31.1 39 -12.8 8.9
22:05 1024 30.24 853 25.19 -0.6 31 39 -12.9 8.8
22:10 1024 30.24 853 25.19 -0.4 31.2 39 -12.9 8.8
22:15 1024 30.24 853 25.19 -0.5 31.1 39 -12.7 9.2
22:20 1024 30.24 853 25.19 -0.6 30.9 40 -12.6 9.4
22:25 1024 30.24 853 25.19 -0.6 30.9 39 -13 8.6
22:30 1024 30.24 853 25.19 -0.5 31.1 39 -12.7 9.2
22:35 1024 30.24 853 25.19 -0.6 31 40 -12.6 9.4
22:40 1024 30.24 853 25.19 -0.7 30.8 40 -12.6 9.3
22:45 1024 30.24 853 25.19 -0.7 30.7 40 -12.7 9.1
22:50 1024 30.24 853 25.19 -0.5 31.1 39 -12.9 8.9
22:55 1024 30.24 853 25.19 -0.5 31 39 -12.8 9
23:00 1024 30.24 853 25.19 -0.6 30.9 40 -12.7 9.2
23:05 1024 30.24 853 25.19 -0.7 30.7 40 -12.6 9.3
23:10 1024 30.24 853 25.19 -0.9 30.5 41 -12.6 9.4
23:15 1024 30.24 853 25.19 -0.7 30.7 40 -12.7 9.2
23:20 1024 30.24 853 25.19 -0.8 30.6 40 -12.7 9.2
23:25 1024 30.24 853 25.19 -0.7 30.8 40 -12.7 9.2
23:30 1024 30.24 853 25.19 -0.6 31 39 -12.8 9
23:35 1024 30.24 853 25.19 -0.5 31.1 39 -12.7 9.1
23:40 1024 30.24 853 25.19 -0.5 31.1 39 -12.7 9.1
23:45 1024 30.24 853 25.19 -0.4 31.3 39 -12.6 9.3
23:50 1024 30.24 853 25.19 -0.4 31.2 40 -12.3 9.8
23:55 1024 30.24 853 25.19 -0.6 30.9 42 -11.9 10.6
24:00 1024 30.24 853 25.19 -0.6 30.9 41 -12.3 9.9